CheckWX is a tool to help pilots better visualize weather data.  It is not intended as a substitute for an official pre-flight weather briefing.

06:05:51 UTC

4A9 METAR
Isbell Field Airport
Fort Payne, Alabama, USA
Current

31 mins ago

K4A9 290535Z AUTO 02003KT 10SM BKN120 03/02 A3002 RMK AO2 T00330021
Observed
Jan-29 @ 05:35 UTC
Wind
  • 020° at 3 KTS
Visibility
10 SM
Flight Rules
VFR
Cloud Levels
  • Broken at 12,000' AGL
Temperature
C / 37°F
Dewpoint
C / 36°F
Humidity
93%
Altimeter
30.02" Hg
Pressure
1016.62 hPa
Previous

51 mins ago

K4A9 290515Z AUTO 02003KT 10SM BKN120 03/02 A3002 RMK AO2 T00330020
Observed
Jan-29 @ 05:15 UTC
Wind
  • 020° at 3 KTS
Visibility
10 SM
Flight Rules
VFR
Cloud Levels
  • Broken at 12,000' AGL
Temperature
C / 37°F
Dewpoint
C / 36°F
Humidity
93%
Altimeter
30.02" Hg
Pressure
1016.62 hPa
Previous

1 hour ago

K4A9 290455Z AUTO 03003KT 10SM BKN120 04/02 A3002 RMK AO2 T00350022
Observed
Jan-29 @ 04:55 UTC
Wind
  • 030° at 3 KTS
Visibility
10 SM
Flight Rules
VFR
Cloud Levels
  • Broken at 12,000' AGL
Temperature
C / 39°F
Dewpoint
C / 36°F
Humidity
87%
Altimeter
30.02" Hg
Pressure
1016.62 hPa